Time;durP1;ratioP1;P1;durP2;ratioP2;P2;SDS_P1;SDS_P2;PMS_P1;PMS_P2;Temp;Humidity;BMP_temperature;BMP_pressure;BME280_temperature;BME280_humidity;BME280_pressure;Samples;Min_cycle;Max_cycle;Signal;HPM_P1;HPM_P2
2022/03/12 00:01:29;;;;;;;9.77;4.75;;;7.60;45.40;;;;;;5136922;27;36548;-48
2022/03/12 00:04:00;;;;;;;10.70;4.60;;;7.50;45.80;;;;;;5137771;27;37300;-49
2022/03/12 00:06:27;;;;;;;11.00;4.75;;;7.50;45.30;;;;;;5134497;27;38055;-49
2022/03/12 00:08:55;;;;;;;12.48;5.57;;;7.50;45.50;;;;;;5135933;27;37253;-48
2022/03/12 00:11:26;;;;;;;14.05;5.20;;;7.50;45.60;;;;;;5136954;27;36618;-48
2022/03/12 00:13:55;;;;;;;11.07;5.10;;;7.50;45.40;;;;;;5136596;27;38299;-50
2022/03/12 00:16:23;;;;;;;10.57;5.40;;;7.50;45.50;;;;;;5137254;27;39493;-50
2022/03/12 00:18:54;;;;;;;12.43;5.63;;;7.50;45.70;;;;;;5137130;27;38595;-48
2022/03/12 00:21:23;;;;;;;11.10;5.05;;;7.50;45.40;;;;;;5136754;27;36366;-50
2022/03/12 00:23:51;;;;;;;9.35;4.70;;;7.50;45.70;;;;;;5136167;27;37452;-47
2022/03/12 00:26:22;;;;;;;9.02;5.43;;;7.40;45.50;;;;;;5136602;27;38238;-48
2022/03/12 00:28:52;;;;;;;8.52;4.82;;;7.40;45.60;;;;;;5136484;27;37160;-51
2022/03/12 00:31:20;;;;;;;8.20;4.60;;;7.40;45.60;;;;;;5135746;27;36609;-50
2022/03/12 00:33:47;;;;;;;9.68;4.72;;;7.40;45.70;;;;;;5131291;27;39502;-50
2022/03/12 00:36:17;;;;;;;11.70;5.75;;;7.40;45.90;;;;;;5134377;27;38406;-47
2022/03/12 00:38:45;;;;;;;9.05;4.75;;;7.40;46.10;;;;;;5135135;27;37447;-51
2022/03/12 00:41:13;;;;;;;10.27;4.95;;;7.30;46.20;;;;;;5134279;27;37013;-51
2022/03/12 00:43:41;;;;;;;9.40;5.25;;;7.30;46.00;;;;;;5135277;27;37788;-50
2022/03/12 00:46:10;;;;;;;9.68;5.07;;;7.30;46.10;;;;;;5136753;27;36330;-48
2022/03/12 00:48:39;;;;;;;12.77;5.10;;;7.30;46.30;;;;;;5135644;27;37504;-46
2022/03/12 00:51:07;;;;;;;9.23;5.03;;;7.30;46.30;;;;;;5135198;27;38596;-49
2022/03/12 00:53:35;;;;;;;10.98;4.78;;;7.30;46.30;;;;;;5135111;27;37567;-51
2022/03/12 00:56:03;;;;;;;12.00;6.22;;;7.30;46.50;;;;;;5134937;27;39057;-50
2022/03/12 00:58:31;;;;;;;9.77;5.25;;;7.30;47.10;;;;;;5133478;27;37721;-50
2022/03/12 01:00:58;;;;;;;12.68;5.38;;;7.20;46.60;;;;;;5133140;27;37178;-50
2022/03/12 01:03:27;;;;;;;12.65;5.35;;;7.30;46.80;;;;;;5133153;27;37442;-48
2022/03/12 01:05:59;;;;;;;12.05;5.35;;;7.30;46.80;;;;;;5134560;27;20079;-50
2022/03/12 01:08:28;;;;;;;9.18;5.40;;;7.20;46.90;;;;;;5133743;27;37309;-52
2022/03/12 01:10:59;;;;;;;14.52;5.75;;;7.20;47.10;;;;;;5132060;27;36540;-52
2022/03/12 01:13:26;;;;;;;10.60;5.30;;;7.20;47.10;;;;;;5133282;27;37634;-50
2022/03/12 01:15:54;;;;;;;14.60;5.47;;;7.20;47.10;;;;;;5134517;27;36358;-49
2022/03/12 01:18:23;;;;;;;11.00;5.57;;;7.20;47.00;;;;;;5133656;27;36021;-48
2022/03/12 01:20:52;;;;;;;12.55;5.28;;;7.20;47.40;;;;;;5132156;27;38009;-47
2022/03/12 01:23:25;;;;;;;10.65;5.57;;;7.20;47.10;;;;;;5134131;27;38912;-49
2022/03/12 01:25:53;;;;;;;13.40;5.67;;;7.20;47.30;;;;;;5132602;27;37624;-48
2022/03/12 01:28:21;;;;;;;10.77;5.07;;;7.10;47.20;;;;;;5130970;27;38015;-47
2022/03/12 01:30:48;;;;;;;11.07;5.38;;;7.20;47.20;;;;;;5130404;27;37389;-48
2022/03/12 01:33:16;;;;;;;10.63;5.78;;;7.20;47.10;;;;;;5128545;27;36312;-47
2022/03/12 01:35:43;;;;;;;10.98;5.68;;;7.20;47.10;;;;;;5129929;27;37991;-50
2022/03/12 01:38:12;;;;;;;10.73;5.07;;;7.20;47.20;;;;;;5132424;27;37217;-51
2022/03/12 01:40:39;;;;;;;10.75;5.97;;;7.20;47.20;;;;;;5132915;27;37035;-50
2022/03/12 01:43:07;;;;;;;11.73;5.75;;;7.20;46.90;;;;;;5131813;27;39011;-47
2022/03/12 01:45:36;;;;;;;11.35;5.78;;;7.10;47.00;;;;;;5132913;27;37535;-47
2022/03/12 01:48:05;;;;;;;10.35;6.05;;;7.10;47.10;;;;;;5133416;27;37681;-49
2022/03/12 01:50:35;;;;;;;10.32;5.50;;;7.10;47.10;;;;;;5133716;27;35249;-50
2022/03/12 01:53:05;;;;;;;15.18;6.82;;;7.10;47.10;;;;;;5132197;27;39006;-48
2022/03/12 01:55:34;;;;;;;11.77;5.55;;;7.10;47.00;;;;;;5132416;27;38328;-50
2022/03/12 01:58:03;;;;;;;11.32;6.22;;;7.10;47.10;;;;;;5132876;27;38239;-48
2022/03/12 02:00:41;;;;;;;10.32;5.22;;;7.10;47.30;;;;;;5131892;27;36377;-51
2022/03/12 02:03:09;;;;;;;10.00;5.80;;;7.10;47.50;;;;;;5132858;27;37581;-47
2022/03/12 02:05:37;;;;;;;11.82;5.70;;;7.10;47.30;;;;;;5131703;27;40044;-47
2022/03/12 02:08:05;;;;;;;10.68;6.00;;;7.10;47.30;;;;;;5129943;27;40285;-48
2022/03/12 02:10:35;;;;;;;10.88;5.43;;;7.10;47.40;;;;;;5131905;27;37254;-47
2022/03/12 02:13:03;;;;;;;11.85;5.80;;;7.10;47.30;;;;;;5129366;27;37929;-49
2022/03/12 02:15:31;;;;;;;13.50;6.10;;;7.10;47.40;;;;;;5133692;27;37950;-47
2022/03/12 02:17:58;;;;;;;10.25;5.28;;;7.10;47.40;;;;;;5129580;27;36182;-49
2022/03/12 02:20:25;;;;;;;15.90;6.43;;;7.10;47.50;;;;;;5133383;27;40246;-47
2022/03/12 02:22:53;;;;;;;16.65;7.43;;;7.10;47.50;;;;;;5132912;27;37745;-48
2022/03/12 02:25:28;;;;;;;11.25;5.13;;;7.00;47.60;;;;;;5133898;27;36612;-48
2022/03/12 02:27:57;;;;;;;12.70;5.40;;;7.00;47.20;;;;;;5133494;27;37696;-48
2022/03/12 02:30:28;;;;;;;9.68;5.25;;;7.00;47.50;;;;;;5134605;27;37518;-50
2022/03/12 02:33:00;;;;;;;14.13;5.78;;;7.00;47.60;;;;;;5138247;27;38515;-49
2022/03/12 02:35:34;;;;;;;11.90;5.25;;;7.00;47.60;;;;;;5138183;27;37586;-49
2022/03/12 02:38:02;;;;;;;10.13;5.38;;;7.00;47.90;;;;;;5136960;27;37433;-50
2022/03/12 02:40:32;;;;;;;12.60;5.53;;;7.00;48.00;;;;;;5138161;27;36734;-50
2022/03/12 02:43:00;;;;;;;10.57;5.95;;;7.00;48.00;;;;;;5134929;27;37792;-47
2022/03/12 02:45:28;;;;;;;13.30;6.07;;;7.00;48.10;;;;;;5136302;27;38252;-47
2022/03/12 02:47:57;;;;;;;11.18;6.03;;;7.00;48.20;;;;;;5135700;27;38812;-47
2022/03/12 02:50:26;;;;;;;11.23;6.00;;;7.00;48.10;;;;;;5135911;27;37508;-50
2022/03/12 02:52:54;;;;;;;10.85;6.07;;;6.90;48.10;;;;;;5136812;27;37750;-48
2022/03/12 02:55:24;;;;;;;16.40;5.95;;;6.90;48.20;;;;;;5135437;27;38311;-48
2022/03/12 02:57:54;;;;;;;15.95;6.03;;;6.90;48.20;;;;;;5135033;27;38350;-47
2022/03/12 03:00:21;;;;;;;9.68;5.30;;;6.90;48.20;;;;;;5136643;27;37304;-47
2022/03/12 03:02:53;;;;;;;10.40;5.70;;;6.90;48.40;;;;;;5136511;27;37866;-47
2022/03/12 03:05:30;;;;;;;11.80;5.75;;;6.90;48.40;;;;;;5136719;27;37589;-50
2022/03/12 03:07:58;;;;;;;14.10;6.65;;;6.90;48.60;;;;;;5137237;27;39801;-47
2022/03/12 03:10:34;;;;;;;11.02;6.43;;;6.90;48.50;;;;;;5137231;27;36686;-48
2022/03/12 03:13:33;;;;;;;11.10;6.05;;;6.90;48.70;;;;;;5137374;27;36265;-48
2022/03/12 03:16:03;;;;;;;8.95;5.63;;;6.90;48.60;;;;;;5136522;27;38112;-48
2022/03/12 03:18:33;;;;;;;13.00;5.53;;;6.90;48.70;;;;;;5137306;27;37962;-47
2022/03/12 03:21:02;;;;;;;11.63;6.53;;;6.90;48.70;;;;;;5136837;27;35281;-48
2022/03/12 03:23:31;;;;;;;11.60;6.22;;;6.90;48.60;;;;;;5137564;27;38356;-48
2022/03/12 03:26:00;;;;;;;10.50;5.75;;;6.90;48.50;;;;;;5137315;27;38487;-48
2022/03/12 03:28:29;;;;;;;10.20;5.55;;;6.90;48.80;;;;;;5137124;27;36896;-49
2022/03/12 03:30:56;;;;;;;10.48;5.65;;;6.90;48.60;;;;;;5134564;27;36357;-49
2022/03/12 03:33:25;;;;;;;13.20;6.45;;;6.90;48.70;;;;;;5135839;27;37516;-50
2022/03/12 03:35:52;;;;;;;11.95;6.00;;;6.90;48.90;;;;;;5132748;27;38055;-50
2022/03/12 03:38:20;;;;;;;10.73;5.95;;;6.90;49.00;;;;;;5135596;27;36090;-50
2022/03/12 03:40:48;;;;;;;13.55;5.57;;;6.80;48.80;;;;;;5137207;27;36705;-49
2022/03/12 03:43:18;;;;;;;12.27;6.38;;;6.90;49.00;;;;;;5136794;27;37705;-49
2022/03/12 03:45:49;;;;;;;10.77;5.80;;;6.80;49.20;;;;;;5137793;27;39652;-50
2022/03/12 03:48:18;;;;;;;19.13;6.65;;;6.80;49.20;;;;;;5136040;27;37331;-50
2022/03/12 03:50:47;;;;;;;13.15;6.07;;;6.80;49.40;;;;;;5137220;27;38464;-46
2022/03/12 03:53:16;;;;;;;14.93;6.13;;;6.80;49.40;;;;;;5136134;27;36491;-51
2022/03/12 03:55:44;;;;;;;9.40;5.38;;;6.80;49.50;;;;;;5136526;27;38217;-49
2022/03/12 03:58:13;;;;;;;10.77;6.05;;;6.80;49.20;;;;;;5136120;27;37611;-47
2022/03/12 04:00:51;;;;;;;11.85;6.20;;;6.80;49.00;;;;;;5136641;27;37048;-48
2022/03/12 04:03:20;;;;;;;8.73;5.20;;;6.90;49.00;;;;;;5136285;27;37028;-48
2022/03/12 04:05:47;;;;;;;12.32;5.32;;;6.90;49.00;;;;;;5134408;27;38868;-50
2022/03/12 04:08:15;;;;;;;9.77;5.70;;;6.90;49.10;;;;;;5136615;27;37775;-47
2022/03/12 04:10:42;;;;;;;13.77;5.65;;;6.90;49.40;;;;;;5138007;27;36178;-50
2022/03/12 04:13:13;;;;;;;9.30;5.63;;;6.80;49.00;;;;;;5137052;27;37704;-49
2022/03/12 04:15:43;;;;;;;11.20;5.78;;;6.80;48.90;;;;;;5137265;27;38127;-50
2022/03/12 04:18:13;;;;;;;13.10;5.55;;;6.80;48.80;;;;;;5137233;27;38384;-48
2022/03/12 04:20:43;;;;;;;10.60;5.82;;;6.90;49.00;;;;;;5136258;27;37078;-48
2022/03/12 04:23:12;;;;;;;10.15;5.63;;;6.90;49.10;;;;;;5135985;27;36199;-50
2022/03/12 04:25:40;;;;;;;10.73;5.40;;;6.80;49.30;;;;;;5135599;27;38655;-47
2022/03/12 04:28:08;;;;;;;8.68;5.13;;;6.80;49.30;;;;;;5135064;27;36345;-51
2022/03/12 04:30:38;;;;;;;12.52;5.40;;;6.80;49.40;;;;;;5137314;27;34685;-50
2022/03/12 04:33:07;;;;;;;10.90;5.88;;;6.80;49.50;;;;;;5136957;27;38374;-51
2022/03/12 04:35:34;;;;;;;10.02;6.07;;;6.80;49.90;;;;;;5136612;27;37699;-47
2022/03/12 04:38:03;;;;;;;10.25;5.15;;;6.80;49.30;;;;;;5136117;27;37911;-49
2022/03/12 04:40:31;;;;;;;10.43;5.45;;;6.80;49.30;;;;;;5134146;27;38408;-48
2022/03/12 04:42:58;;;;;;;11.82;5.38;;;6.80;49.20;;;;;;5134594;27;36457;-49
2022/03/12 04:45:28;;;;;;;10.60;6.07;;;6.80;49.30;;;;;;5135645;27;37640;-48
2022/03/12 04:47:55;;;;;;;12.52;5.93;;;6.80;49.60;;;;;;5132613;27;36369;-50
2022/03/12 04:50:24;;;;;;;15.25;5.63;;;6.70;49.50;;;;;;5135391;27;37961;-46
2022/03/12 04:52:54;;;;;;;12.63;5.70;;;6.80;49.60;;;;;;5134989;27;37494;-48
2022/03/12 04:55:25;;;;;;;10.82;5.28;;;6.70;49.50;;;;;;5135628;27;38081;-47
2022/03/12 04:57:53;;;;;;;11.15;5.22;;;6.70;49.60;;;;;;5135768;27;36113;-49
2022/03/12 05:00:25;;;;;;;11.82;5.70;;;6.80;49.80;;;;;;5135672;27;35354;-46
2022/03/12 05:02:55;;;;;;;15.05;5.90;;;6.70;49.70;;;;;;5134826;27;37388;-50
2022/03/12 05:05:22;;;;;;;11.82;5.78;;;6.80;49.70;;;;;;5135179;27;38718;-48
2022/03/12 05:07:50;;;;;;;12.15;5.70;;;6.80;49.70;;;;;;5135459;27;37398;-47
2022/03/12 05:10:18;;;;;;;15.30;5.93;;;6.80;49.60;;;;;;5135956;27;35184;-51
2022/03/12 05:12:48;;;;;;;11.07;5.57;;;6.80;49.60;;;;;;5135753;27;37722;-47
2022/03/12 05:15:17;;;;;;;11.20;5.90;;;6.80;49.80;;;;;;5135235;27;40136;-50
2022/03/12 05:17:48;;;;;;;10.43;5.10;;;6.80;50.20;;;;;;5135598;27;37365;-45
2022/03/12 05:20:21;;;;;;;9.15;5.15;;;6.80;49.80;;;;;;5135907;27;37389;-48
2022/03/12 05:22:49;;;;;;;9.65;5.22;;;6.80;49.90;;;;;;5133213;27;38328;-47
2022/03/12 05:25:18;;;;;;;8.82;5.28;;;6.80;50.00;;;;;;5135112;27;38223;-47
2022/03/12 05:27:48;;;;;;;13.65;5.55;;;6.80;50.00;;;;;;5134971;27;37677;-47
2022/03/12 05:30:15;;;;;;;9.65;5.50;;;6.80;50.00;;;;;;5135159;27;37251;-50
2022/03/12 05:32:43;;;;;;;13.55;5.80;;;6.80;50.00;;;;;;5135438;27;37037;-47
2022/03/12 05:35:10;;;;;;;8.70;5.05;;;6.80;49.70;;;;;;5133855;27;37535;-47
2022/03/12 05:37:38;;;;;;;10.85;6.40;;;6.80;49.50;;;;;;5135217;27;38826;-49
2022/03/12 05:40:09;;;;;;;10.65;5.57;;;6.80;49.50;;;;;;5135502;27;36321;-49
2022/03/12 05:42:37;;;;;;;11.40;5.10;;;6.90;49.60;;;;;;5133393;27;37648;-50
2022/03/12 05:45:09;;;;;;;9.57;5.18;;;6.90;49.40;;;;;;5135368;27;37630;-46
2022/03/12 05:47:38;;;;;;;10.77;4.88;;;6.90;49.30;;;;;;5133417;27;36006;-50
2022/03/12 05:50:09;;;;;;;11.30;5.60;;;6.90;49.60;;;;;;5135827;27;36823;-48
2022/03/12 05:52:37;;;;;;;10.70;5.75;;;6.90;49.80;;;;;;5136468;27;36712;-47
2022/03/12 05:55:06;;;;;;;11.05;5.78;;;6.90;50.20;;;;;;5135759;27;37686;-51
2022/03/12 05:57:33;;;;;;;11.68;5.95;;;6.90;50.70;;;;;;5135599;27;38366;-50
2022/03/12 06:00:02;;;;;;;8.57;5.18;;;6.90;50.80;;;;;;5135039;27;36673;-50
2022/03/12 06:02:32;;;;;;;9.43;4.93;;;6.90;51.10;;;;;;5133270;27;38071;-51
2022/03/12 06:04:59;;;;;;;9.57;5.75;;;6.90;51.20;;;;;;5133686;27;36591;-47
2022/03/12 06:07:29;;;;;;;9.88;5.38;;;6.90;51.40;;;;;;5138982;27;40069;-50
2022/03/12 06:09:56;;;;;;;10.10;5.40;;;6.80;51.20;;;;;;5138909;27;36803;-48
2022/03/12 06:12:26;;;;;;;10.30;5.60;;;6.80;51.20;;;;;;5139241;27;37619;-47
2022/03/12 06:14:55;;;;;;;9.85;5.93;;;6.80;51.00;;;;;;5137554;27;37547;-48
2022/03/12 06:17:24;;;;;;;9.13;5.18;;;6.80;50.90;;;;;;5137426;27;37290;-49
2022/03/12 06:19:53;;;;;;;10.60;5.20;;;6.70;50.50;;;;;;5139036;27;36515;-50
2022/03/12 06:22:21;;;;;;;10.35;5.97;;;6.70;50.70;;;;;;5137515;27;38374;-48
2022/03/12 06:24:48;;;;;;;11.50;5.97;;;6.70;50.90;;;;;;5138055;27;37994;-47
2022/03/12 06:27:20;;;;;;;9.90;5.75;;;6.80;50.60;;;;;;5139120;27;36174;-48
2022/03/12 06:29:48;;;;;;;11.55;5.07;;;6.70;50.40;;;;;;5137687;27;36285;-49
2022/03/12 06:32:16;;;;;;;9.55;5.03;;;6.80;50.40;;;;;;5135682;27;37699;-47
2022/03/12 06:34:43;;;;;;;10.45;6.18;;;6.80;50.20;;;;;;5137954;27;38283;-49
2022/03/12 06:37:13;;;;;;;14.27;5.38;;;6.40;50.10;;;;;;5137251;27;37499;-50
2022/03/12 06:39:40;;;;;;;13.85;5.65;;;6.80;50.50;;;;;;5138027;27;36689;-48
2022/03/12 06:42:08;;;;;;;8.75;5.00;;;6.70;50.40;;;;;;5134978;27;39113;-48
2022/03/12 06:44:37;;;;;;;13.07;5.32;;;6.80;50.60;;;;;;5135595;27;37670;-50
2022/03/12 06:47:08;;;;;;;12.95;5.32;;;6.80;50.60;;;;;;5134059;27;37367;-48
2022/03/12 06:49:36;;;;;;;9.77;5.35;;;6.80;50.10;;;;;;5134920;27;35209;-48
2022/03/12 06:52:04;;;;;;;10.98;5.25;;;6.70;50.10;;;;;;5135599;27;36341;-47
2022/03/12 06:54:33;;;;;;;12.18;5.22;;;6.80;50.10;;;;;;5137459;27;37397;-48
2022/03/12 06:57:01;;;;;;;9.25;5.13;;;6.80;50.20;;;;;;5136620;27;37228;-48
2022/03/12 06:59:28;;;;;;;9.65;5.43;;;6.80;50.00;;;;;;5136098;27;35934;-48
2022/03/12 07:01:56;;;;;;;10.80;5.15;;;6.90;50.00;;;;;;5133720;27;37241;-49
2022/03/12 07:04:24;;;;;;;8.45;4.53;;;6.80;49.60;;;;;;5135167;27;36671;-47
2022/03/12 07:06:51;;;;;;;9.30;5.57;;;6.80;49.70;;;;;;5135822;27;35998;-49
2022/03/12 07:09:19;;;;;;;9.90;5.63;;;6.90;49.60;;;;;;5136816;27;36983;-47
2022/03/12 07:11:47;;;;;;;9.50;5.00;;;7.10;49.50;;;;;;5136406;27;37279;-46
2022/03/12 07:14:15;;;;;;;10.68;5.55;;;6.90;49.50;;;;;;5136521;27;37829;-50
2022/03/12 07:16:42;;;;;;;10.13;5.93;;;7.00;49.60;;;;;;5135894;27;37636;-48
2022/03/12 07:19:09;;;;;;;9.85;5.43;;;7.10;49.50;;;;;;5135532;27;36448;-49
2022/03/12 07:21:37;;;;;;;10.52;5.40;;;7.20;49.30;;;;;;5135580;27;36220;-47
2022/03/12 07:24:05;;;;;;;9.70;6.03;;;7.30;49.30;;;;;;5136145;27;40083;-49
2022/03/12 07:26:32;;;;;;;9.40;5.22;;;7.30;49.10;;;;;;5136477;27;37693;-50
2022/03/12 07:29:01;;;;;;;9.90;5.38;;;7.40;49.00;;;;;;5135190;27;36434;-50
2022/03/12 07:31:28;;;;;;;12.35;5.82;;;7.50;49.00;;;;;;5136878;27;36386;-50
2022/03/12 07:33:55;;;;;;;12.10;5.18;;;7.70;49.60;;;;;;5136000;27;38009;-48
2022/03/12 07:36:23;;;;;;;11.20;5.65;;;8.10;48.90;;;;;;5135850;27;37473;-49
2022/03/12 07:38:50;;;;;;;11.02;5.53;;;8.30;48.30;;;;;;5135642;27;39618;-46
2022/03/12 07:41:18;;;;;;;10.38;5.40;;;8.50;47.70;;;;;;5136234;27;39380;-50
2022/03/12 07:43:45;;;;;;;11.30;6.07;;;8.60;47.00;;;;;;5140776;27;38075;-48
2022/03/12 07:46:14;;;;;;;10.68;5.68;;;8.70;47.20;;;;;;5141906;27;36163;-50
2022/03/12 07:48:41;;;;;;;12.57;5.88;;;8.80;46.80;;;;;;5141101;27;36515;-49
2022/03/12 07:51:09;;;;;;;10.43;5.10;;;8.90;46.80;;;;;;5142679;27;37022;-50
2022/03/12 07:53:37;;;;;;;11.32;5.35;;;8.90;46.70;;;;;;5142868;27;38955;-50
2022/03/12 07:56:05;;;;;;;10.85;5.88;;;8.90;46.90;;;;;;5140776;27;37316;-48
2022/03/12 07:58:33;;;;;;;17.02;5.85;;;8.90;47.20;;;;;;5142687;27;36906;-48
2022/03/12 08:01:02;;;;;;;13.15;6.22;;;9.00;47.20;;;;;;5141320;27;36339;-50
2022/03/12 08:03:31;;;;;;;11.48;5.63;;;9.10;46.80;;;;;;5140219;27;38202;-49
2022/03/12 08:05:58;;;;;;;11.55;6.32;;;9.20;46.80;;;;;;5141309;27;37687;-47
2022/03/12 08:08:26;;;;;;;11.27;5.53;;;9.30;46.60;;;;;;5141577;27;35102;-50
2022/03/12 08:13:39;;;;;;;10.45;5.57;;;9.40;46.50;;;;;;5143179;27;39156;-50
2022/03/12 08:16:07;;;;;;;11.25;6.10;;;9.60;46.60;;;;;;5141852;27;37963;-50
2022/03/12 08:18:35;;;;;;;11.50;6.32;;;9.80;46.50;;;;;;5141450;27;36293;-47
2022/03/12 08:21:03;;;;;;;11.75;6.72;;;10.10;46.70;;;;;;5140710;27;36158;-50
2022/03/12 08:23:30;;;;;;;10.27;5.97;;;10.30;46.70;;;;;;5141480;27;37513;-50
2022/03/12 08:25:57;;;;;;;10.23;5.88;;;10.50;45.40;;;;;;5142352;27;36156;-51
2022/03/12 08:28:25;;;;;;;11.65;6.93;;;10.60;45.60;;;;;;5141579;27;37100;-51
2022/03/12 08:30:52;;;;;;;10.77;6.53;;;10.70;45.40;;;;;;5142720;27;37610;-50
2022/03/12 08:33:20;;;;;;;11.70;6.75;;;10.90;45.30;;;;;;5141541;27;37742;-51
2022/03/12 08:35:49;;;;;;;13.07;6.25;;;11.00;44.80;;;;;;5141974;27;38074;-48
2022/03/12 08:38:16;;;;;;;13.05;6.45;;;11.20;44.60;;;;;;5141792;27;36565;-50
2022/03/12 08:40:44;;;;;;;10.90;6.72;;;11.40;44.60;;;;;;5142353;27;37578;-48
2022/03/12 08:43:11;;;;;;;10.43;6.93;;;11.60;44.30;;;;;;5140985;27;37572;-50
2022/03/12 08:45:38;;;;;;;9.88;6.50;;;11.90;44.20;;;;;;5141953;27;37754;-51
2022/03/12 08:48:06;;;;;;;11.43;6.50;;;12.20;43.40;;;;;;5139949;27;36510;-51
2022/03/12 08:50:34;;;;;;;11.27;7.25;;;12.50;43.20;;;;;;5141210;27;37268;-50
2022/03/12 08:53:02;;;;;;;12.13;6.38;;;12.60;42.40;;;;;;5141002;27;37369;-51
2022/03/12 08:55:30;;;;;;;10.60;6.93;;;12.50;41.90;;;;;;5142309;27;35904;-51
2022/03/12 08:57:57;;;;;;;10.50;6.43;;;12.50;42.70;;;;;;5140323;27;37992;-51
2022/03/12 09:00:25;;;;;;;12.45;7.05;;;12.60;42.50;;;;;;5140692;27;37358;-49
2022/03/12 09:02:52;;;;;;;11.00;6.95;;;12.80;42.70;;;;;;5140443;27;40752;-48
2022/03/12 09:05:20;;;;;;;11.68;7.18;;;12.90;42.40;;;;;;5139815;27;37384;-49
2022/03/12 09:07:49;;;;;;;13.52;6.60;;;13.00;42.60;;;;;;5141048;27;37093;-49
2022/03/12 09:10:19;;;;;;;11.77;7.00;;;13.20;42.80;;;;;;5141211;27;39406;-49
2022/03/12 09:12:46;;;;;;;12.48;6.30;;;13.30;42.70;;;;;;5140383;27;37652;-49
2022/03/12 09:15:14;;;;;;;10.20;6.80;;;13.60;42.70;;;;;;5140398;27;37259;-48
2022/03/12 09:17:42;;;;;;;10.77;7.40;;;13.80;42.70;;;;;;5141615;27;37022;-47
2022/03/12 09:20:10;;;;;;;14.02;8.48;;;13.90;42.60;;;;;;5141182;27;38272;-47
2022/03/12 09:22:38;;;;;;;16.15;7.78;;;14.10;42.70;;;;;;5139157;27;38716;-51
2022/03/12 09:25:09;;;;;;;12.95;8.05;;;14.30;42.60;;;;;;5139475;27;38728;-48
2022/03/12 09:27:38;;;;;;;11.50;7.72;;;14.30;42.10;;;;;;5139373;27;36065;-52
2022/03/12 09:30:07;;;;;;;11.73;7.53;;;14.50;42.20;;;;;;5140751;27;36294;-50
2022/03/12 09:32:35;;;;;;;12.68;7.57;;;14.50;42.60;;;;;;5140078;27;39097;-49
2022/03/12 09:35:02;;;;;;;15.35;8.00;;;14.40;43.20;;;;;;5139675;27;36254;-51
2022/03/12 09:37:30;;;;;;;13.00;7.75;;;14.40;43.10;;;;;;5140039;27;36454;-50
2022/03/12 09:39:57;;;;;;;18.10;7.90;;;14.30;43.60;;;;;;5141360;27;37552;-50
2022/03/12 09:42:28;;;;;;;11.88;7.43;;;14.30;44.40;;;;;;5140295;27;37282;-47
2022/03/12 09:44:57;;;;;;;13.38;7.82;;;14.40;44.60;;;;;;5141659;27;37530;-48
2022/03/12 09:47:24;;;;;;;14.20;8.25;;;14.40;44.80;;;;;;5141008;27;35967;-51
2022/03/12 09:49:51;;;;;;;14.20;8.60;;;14.30;44.80;;;;;;5140865;27;37545;-48
2022/03/12 09:52:19;;;;;;;13.60;8.32;;;14.20;45.00;;;;;;5140496;27;39136;-48
2022/03/12 09:54:47;;;;;;;11.70;7.07;;;14.40;45.20;;;;;;5140489;27;37089;-50
2022/03/12 09:57:14;;;;;;;13.23;7.57;;;14.50;45.00;;;;;;5141060;27;36566;-50
2022/03/12 09:59:42;;;;;;;11.98;7.28;;;14.40;45.20;;;;;;5140324;27;38303;-49
2022/03/12 10:02:11;;;;;;;11.63;7.85;;;14.50;46.00;;;;;;5139800;27;36339;-50
2022/03/12 10:04:38;;;;;;;11.60;7.80;;;14.50;46.10;;;;;;5139948;27;37990;-48
2022/03/12 10:07:09;;;;;;;16.15;8.35;;;14.50;46.20;;;;;;5139121;27;36717;-47
2022/03/12 10:09:38;;;;;;;11.90;7.50;;;14.60;46.30;;;;;;5140458;27;37756;-51
2022/03/12 10:12:06;;;;;;;12.75;8.75;;;14.70;46.30;;;;;;5139430;27;38573;-50
2022/03/12 10:14:34;;;;;;;16.00;7.22;;;14.80;46.20;;;;;;5140067;27;37444;-50
2022/03/12 10:17:02;;;;;;;12.90;7.53;;;14.90;46.50;;;;;;5140147;27;36636;-49
2022/03/12 10:19:34;;;;;;;13.20;7.82;;;14.80;47.00;;;;;;5138731;27;38894;-52
2022/03/12 10:22:01;;;;;;;13.10;7.63;;;14.80;47.30;;;;;;5139912;27;37621;-50
2022/03/12 10:24:29;;;;;;;10.50;7.00;;;14.70;47.70;;;;;;5140978;27;35982;-48
2022/03/12 10:26:56;;;;;;;11.95;7.15;;;14.70;48.50;;;;;;5139999;27;36643;-50
2022/03/12 10:29:23;;;;;;;13.20;7.57;;;14.80;49.30;;;;;;5140285;27;37277;-49
2022/03/12 10:31:51;;;;;;;10.77;7.25;;;14.90;49.30;;;;;;5140776;27;36965;-50
2022/03/12 10:34:21;;;;;;;13.73;7.40;;;15.00;49.30;;;;;;5139173;27;37744;-49
2022/03/12 10:36:52;;;;;;;12.38;7.20;;;15.10;49.40;;;;;;5140539;27;35300;-51
2022/03/12 10:39:32;;;;;;;14.07;7.25;;;15.10;49.00;;;;;;5139412;27;36182;-51
2022/03/12 10:42:05;;;;;;;11.82;6.95;;;15.20;49.40;;;;;;5140144;27;37629;-50
2022/03/12 10:44:37;;;;;;;11.40;7.15;;;15.50;48.80;;;;;;5140573;27;37866;-51
2022/03/12 10:47:13;;;;;;;12.68;8.00;;;15.60;48.90;;;;;;5140683;27;37077;-51
2022/03/12 10:49:43;;;;;;;13.55;7.05;;;15.70;48.70;;;;;;5140042;27;37865;-50
2022/03/12 10:52:12;;;;;;;10.75;7.30;;;15.80;49.40;;;;;;5140943;27;38440;-51
2022/03/12 10:54:39;;;;;;;13.00;7.53;;;15.80;49.40;;;;;;5143381;27;38710;-51
2022/03/12 10:57:11;;;;;;;12.68;6.40;;;15.80;49.50;;;;;;5142775;27;37790;-51
2022/03/12 10:59:38;;;;;;;12.88;7.30;;;15.70;50.20;;;;;;5143352;27;38715;-50
2022/03/12 11:02:06;;;;;;;11.15;6.90;;;15.70;50.30;;;;;;5143240;27;37320;-50
2022/03/12 11:04:34;;;;;;;10.82;7.13;;;15.60;50.50;;;;;;5142709;27;37435;-48
2022/03/12 11:07:24;;;;;;;13.70;6.95;;;15.60;50.90;;;;;;5141545;27;36517;-51
2022/03/12 11:09:53;;;;;;;9.68;5.70;;;15.60;52.20;;;;;;5143146;27;37532;-50
2022/03/12 11:12:29;;;;;;;10.10;6.30;;;15.70;52.20;;;;;;5143148;27;39895;-51
2022/03/12 11:15:06;;;;;;;10.60;5.55;;;15.70;52.60;;;;;;5143670;27;36302;-50
2022/03/12 11:17:43;;;;;;;12.07;5.82;;;15.70;53.10;;;;;;5143146;27;37815;-50
2022/03/12 11:20:18;;;;;;;11.75;6.80;;;15.60;52.70;;;;;;5142935;27;36185;-49
2022/03/12 11:22:49;;;;;;;10.02;5.60;;;15.60;52.60;;;;;;5139933;27;36371;-51
2022/03/12 11:25:22;;;;;;;12.70;6.10;;;15.70;53.50;;;;;;5140820;27;39780;-48
2022/03/12 11:27:50;;;;;;;10.40;5.70;;;15.80;53.80;;;;;;5141473;27;35295;-51
2022/03/12 11:30:22;;;;;;;11.32;6.65;;;15.90;54.00;;;;;;5142203;27;37266;-50
2022/03/12 11:33:05;;;;;;;9.57;5.57;;;15.90;53.50;;;;;;5140655;27;38470;-48
2022/03/12 11:35:36;;;;;;;9.05;5.18;;;15.90;52.70;;;;;;5142300;27;38913;-50
2022/03/12 11:38:13;;;;;;;10.27;5.85;;;15.90;52.80;;;;;;5141801;27;35367;-49
2022/03/12 11:40:45;;;;;;;11.73;6.40;;;15.90;53.00;;;;;;5142293;27;37701;-51
2022/03/12 11:43:26;;;;;;;10.07;5.72;;;15.80;53.00;;;;;;5142420;27;37279;-51
2022/03/12 11:45:55;;;;;;;10.90;5.80;;;15.80;53.10;;;;;;5141763;27;36102;-50
2022/03/12 11:48:23;;;;;;;11.18;5.85;;;15.60;53.40;;;;;;5143013;27;35393;-51
2022/03/12 11:50:50;;;;;;;9.13;4.93;;;15.60;53.30;;;;;;5141332;27;37489;-47
2022/03/12 11:53:20;;;;;;;9.55;5.50;;;15.60;53.50;;;;;;5141243;27;37768;-49
2022/03/12 11:55:51;;;;;;;10.50;5.72;;;15.60;53.80;;;;;;5142133;27;37321;-51
2022/03/12 11:58:19;;;;;;;9.60;5.90;;;15.60;54.10;;;;;;5142420;27;36295;-50
2022/03/12 12:00:49;;;;;;;8.50;4.45;;;15.60;54.40;;;;;;5142737;27;37696;-49
2022/03/12 12:03:17;;;;;;;10.02;5.40;;;15.70;54.10;;;;;;5140760;27;38282;-51
2022/03/12 12:05:46;;;;;;;11.30;5.28;;;15.60;54.20;;;;;;5141099;27;38490;-51
2022/03/12 12:08:14;;;;;;;8.35;5.05;;;15.70;54.40;;;;;;5142718;27;36604;-49
2022/03/12 12:10:44;;;;;;;10.55;4.72;;;15.90;54.00;;;;;;5142828;27;37351;-50
2022/03/12 12:13:13;;;;;;;13.65;4.15;;;16.00;53.80;;;;;;5142486;27;36975;-48
2022/03/12 12:15:45;;;;;;;10.15;4.50;;;16.00;53.30;;;;;;5141652;27;36003;-51
2022/03/12 12:18:13;;;;;;;9.55;4.53;;;16.00;53.60;;;;;;5143143;27;35092;-52
2022/03/12 12:20:41;;;;;;;10.05;5.70;;;15.90;53.40;;;;;;5140223;27;37420;-49
2022/03/12 12:23:16;;;;;;;8.73;5.38;;;15.80;53.40;;;;;;5142233;27;36918;-49
2022/03/12 12:25:46;;;;;;;9.32;5.32;;;15.80;54.20;;;;;;5141956;27;35950;-48
2022/03/12 12:28:18;;;;;;;9.70;4.97;;;15.70;54.00;;;;;;5142064;27;36867;-50
2022/03/12 12:30:47;;;;;;;8.30;4.68;;;15.70;53.60;;;;;;5140912;27;37596;-51
2022/03/12 12:33:20;;;;;;;9.95;5.20;;;15.60;54.10;;;;;;5141482;27;38721;-48
2022/03/12 12:35:49;;;;;;;12.90;5.15;;;15.50;54.30;;;;;;5139559;27;36159;-50
2022/03/12 12:38:20;;;;;;;7.82;3.97;;;15.40;53.90;;;;;;5140897;27;37791;-49
2022/03/12 12:40:51;;;;;;;8.15;4.53;;;15.40;53.70;;;;;;5141274;27;36440;-48
2022/03/12 12:43:20;;;;;;;8.25;4.38;;;15.40;54.20;;;;;;5141795;27;36530;-51
2022/03/12 12:46:05;;;;;;;8.80;4.75;;;15.40;54.40;;;;;;5142082;27;37396;-51
2022/03/12 12:48:34;;;;;;;9.00;5.00;;;15.40;53.50;;;;;;5141030;27;38652;-49
2022/03/12 12:51:07;;;;;;;7.88;5.10;;;15.30;53.50;;;;;;5139827;27;40087;-50
2022/03/12 12:53:38;;;;;;;15.52;4.78;;;15.20;53.70;;;;;;5140487;27;37913;-51
2022/03/12 12:56:28;;;;;;;6.80;3.78;;;15.20;54.20;;;;;;5140311;27;40135;-50
2022/03/12 12:59:08;;;;;;;8.93;4.03;;;15.20;53.50;;;;;;5140397;27;35483;-50